Denver, Colorado
Traffic Map
Current Weather Conditions
Denver, Colorado
Broken Clouds
Broken Clouds
57°
Feels Like: 57°
Wind Chill: 57° Ceiling: 22000
Heat Index: 57° Visibility: 10mi
Dew Point: 54° Wind: 8mph
Humidity: 89% Direction: 180° (S)
Pressure: 30.14in Gusts: 0mph
Raw Report DataKBKF 010758Z 18007KT 10SM SCT120 BKN220 14/12 A3014 RMK AO2A SLP130 T01390122
Traffic Incident Summary
Active as of:
Severity:
Category:
InformationThere was an issue retrieving the traffic information for this location. Please try a different location or try again shortly.
Advertisements
Track Severe Weather on mobile